sensor_id;sensor_type;location;lat;lon;timestamp;temperature;humidity
31379;DHT22;61664;48.112;11.662;2022-07-24T00:01:40;24.90;62.60
31379;DHT22;61664;48.112;11.662;2022-07-24T00:04:08;25.00;62.70
31379;DHT22;61664;48.112;11.662;2022-07-24T00:06:35;24.90;62.80
31379;DHT22;61664;48.112;11.662;2022-07-24T00:09:03;24.90;62.80
31379;DHT22;61664;48.112;11.662;2022-07-24T00:11:32;24.90;62.70
31379;DHT22;61664;48.112;11.662;2022-07-24T00:14:00;24.90;62.80
31379;DHT22;61664;48.112;11.662;2022-07-24T00:16:27;24.90;62.90
31379;DHT22;61664;48.112;11.662;2022-07-24T00:18:55;24.90;62.90
31379;DHT22;61664;48.112;11.662;2022-07-24T00:21:23;24.80;63.00
31379;DHT22;61664;48.112;11.662;2022-07-24T00:23:50;24.90;63.10
31379;DHT22;61664;48.112;11.662;2022-07-24T00:26:17;24.90;63.00
31379;DHT22;61664;48.112;11.662;2022-07-24T00:28:44;24.90;63.10
31379;DHT22;61664;48.112;11.662;2022-07-24T00:31:11;24.80;63.10
31379;DHT22;61664;48.112;11.662;2022-07-24T00:33:38;24.90;63.10
31379;DHT22;61664;48.112;11.662;2022-07-24T00:36:05;24.90;63.10
31379;DHT22;61664;48.112;11.662;2022-07-24T00:38:32;24.80;63.10
31379;DHT22;61664;48.112;11.662;2022-07-24T00:40:59;24.80;63.20
31379;DHT22;61664;48.112;11.662;2022-07-24T00:43:26;24.80;63.20
31379;DHT22;61664;48.112;11.662;2022-07-24T00:45:53;24.80;63.20
31379;DHT22;61664;48.112;11.662;2022-07-24T00:48:20;24.80;63.30
31379;DHT22;61664;48.112;11.662;2022-07-24T00:50:48;24.70;63.40
31379;DHT22;61664;48.112;11.662;2022-07-24T00:53:15;24.80;63.50
31379;DHT22;61664;48.112;11.662;2022-07-24T00:55:43;24.80;63.50
31379;DHT22;61664;48.112;11.662;2022-07-24T00:58:10;24.80;63.50
31379;DHT22;61664;48.112;11.662;2022-07-24T01:00:39;24.70;63.60
31379;DHT22;61664;48.112;11.662;2022-07-24T01:03:06;24.70;63.60
31379;DHT22;61664;48.112;11.662;2022-07-24T01:05:33;24.70;63.60
31379;DHT22;61664;48.112;11.662;2022-07-24T01:08:00;24.70;63.60
31379;DHT22;61664;48.112;11.662;2022-07-24T01:10:28;24.70;63.60
31379;DHT22;61664;48.112;11.662;2022-07-24T01:12:56;24.70;63.60
31379;DHT22;61664;48.112;11.662;2022-07-24T01:15:23;24.70;63.60
31379;DHT22;61664;48.112;11.662;2022-07-24T01:17:50;24.70;63.60
31379;DHT22;61664;48.112;11.662;2022-07-24T01:20:18;24.70;63.70
31379;DHT22;61664;48.112;11.662;2022-07-24T01:22:45;24.70;63.70
31379;DHT22;61664;48.112;11.662;2022-07-24T01:25:12;24.70;63.80
31379;DHT22;61664;48.112;11.662;2022-07-24T01:27:39;24.70;63.80
31379;DHT22;61664;48.112;11.662;2022-07-24T01:30:06;24.60;63.80
31379;DHT22;61664;48.112;11.662;2022-07-24T01:32:34;24.70;63.80
31379;DHT22;61664;48.112;11.662;2022-07-24T01:35:01;24.60;63.80
31379;DHT22;61664;48.112;11.662;2022-07-24T01:37:28;24.70;63.90
31379;DHT22;61664;48.112;11.662;2022-07-24T01:39:54;24.60;63.80
31379;DHT22;61664;48.112;11.662;2022-07-24T01:42:21;24.60;63.80
31379;DHT22;61664;48.112;11.662;2022-07-24T01:44:52;24.60;63.80
31379;DHT22;61664;48.112;11.662;2022-07-24T01:47:19;24.60;63.90
31379;DHT22;61664;48.112;11.662;2022-07-24T01:49:46;24.60;63.90
31379;DHT22;61664;48.112;11.662;2022-07-24T01:52:13;24.60;64.00
31379;DHT22;61664;48.112;11.662;2022-07-24T01:54:40;24.70;64.00
31379;DHT22;61664;48.112;11.662;2022-07-24T01:57:06;24.60;64.00
31379;DHT22;61664;48.112;11.662;2022-07-24T01:59:35;24.60;64.00
31379;DHT22;61664;48.112;11.662;2022-07-24T02:02:02;24.70;64.00
31379;DHT22;61664;48.112;11.662;2022-07-24T02:04:29;24.60;63.90
31379;DHT22;61664;48.112;11.662;2022-07-24T02:06:56;24.60;63.90
31379;DHT22;61664;48.112;11.662;2022-07-24T02:09:23;24.60;64.00
31379;DHT22;61664;48.112;11.662;2022-07-24T02:11:50;24.60;64.10
31379;DHT22;61664;48.112;11.662;2022-07-24T02:14:17;24.60;64.10
31379;DHT22;61664;48.112;11.662;2022-07-24T02:16:44;24.60;64.10
31379;DHT22;61664;48.112;11.662;2022-07-24T02:19:11;24.60;64.10
31379;DHT22;61664;48.112;11.662;2022-07-24T02:21:38;24.50;64.10
31379;DHT22;61664;48.112;11.662;2022-07-24T02:24:05;24.50;64.10
31379;DHT22;61664;48.112;11.662;2022-07-24T02:26:33;24.50;64.10
31379;DHT22;61664;48.112;11.662;2022-07-24T02:29:00;24.50;64.10
31379;DHT22;61664;48.112;11.662;2022-07-24T02:31:27;24.50;64.20
31379;DHT22;61664;48.112;11.662;2022-07-24T02:33:54;24.50;64.20
31379;DHT22;61664;48.112;11.662;2022-07-24T02:36:21;24.40;64.10
31379;DHT22;61664;48.112;11.662;2022-07-24T02:38:48;24.40;64.10
31379;DHT22;61664;48.112;11.662;2022-07-24T02:41:15;24.30;64.20
31379;DHT22;61664;48.112;11.662;2022-07-24T02:43:42;24.30;64.20
31379;DHT22;61664;48.112;11.662;2022-07-24T02:46:09;24.20;64.20
31379;DHT22;61664;48.112;11.662;2022-07-24T02:48:36;24.20;64.30
31379;DHT22;61664;48.112;11.662;2022-07-24T02:51:03;24.20;64.40
31379;DHT22;61664;48.112;11.662;2022-07-24T02:53:30;24.10;64.50
31379;DHT22;61664;48.112;11.662;2022-07-24T02:55:57;24.10;64.60
31379;DHT22;61664;48.112;11.662;2022-07-24T02:58:24;24.00;64.60
31379;DHT22;61664;48.112;11.662;2022-07-24T03:00:51;24.00;64.70
31379;DHT22;61664;48.112;11.662;2022-07-24T03:03:19;23.90;64.70
31379;DHT22;61664;48.112;11.662;2022-07-24T03:05:49;23.90;64.90
31379;DHT22;61664;48.112;11.662;2022-07-24T03:08:16;23.90;64.90
31379;DHT22;61664;48.112;11.662;2022-07-24T03:10:43;23.80;65.00
31379;DHT22;61664;48.112;11.662;2022-07-24T03:13:10;23.80;65.10
31379;DHT22;61664;48.112;11.662;2022-07-24T03:15:38;23.70;65.20
31379;DHT22;61664;48.112;11.662;2022-07-24T03:18:05;23.70;65.30
31379;DHT22;61664;48.112;11.662;2022-07-24T03:20:48;23.70;65.40
31379;DHT22;61664;48.112;11.662;2022-07-24T03:23:15;23.70;65.50
31379;DHT22;61664;48.112;11.662;2022-07-24T03:25:42;23.70;65.60
31379;DHT22;61664;48.112;11.662;2022-07-24T03:28:09;23.60;65.60
31379;DHT22;61664;48.112;11.662;2022-07-24T03:30:36;23.60;65.60
31379;DHT22;61664;48.112;11.662;2022-07-24T03:33:03;23.60;65.60
31379;DHT22;61664;48.112;11.662;2022-07-24T03:35:30;23.50;65.60
31379;DHT22;61664;48.112;11.662;2022-07-24T03:37:57;23.50;65.70
31379;DHT22;61664;48.112;11.662;2022-07-24T03:40:24;23.40;65.70
31379;DHT22;61664;48.112;11.662;2022-07-24T03:42:51;23.40;65.80
31379;DHT22;61664;48.112;11.662;2022-07-24T03:45:18;23.40;65.90
31379;DHT22;61664;48.112;11.662;2022-07-24T03:47:45;23.30;66.00
31379;DHT22;61664;48.112;11.662;2022-07-24T03:50:12;23.30;66.10
31379;DHT22;61664;48.112;11.662;2022-07-24T03:52:48;23.20;66.30
31379;DHT22;61664;48.112;11.662;2022-07-24T03:55:16;23.20;66.40
31379;DHT22;61664;48.112;11.662;2022-07-24T03:57:43;23.10;66.50
31379;DHT22;61664;48.112;11.662;2022-07-24T04:00:10;23.10;66.60
31379;DHT22;61664;48.112;11.662;2022-07-24T04:02:38;23.10;66.80
31379;DHT22;61664;48.112;11.662;2022-07-24T04:05:07;23.00;66.80
31379;DHT22;61664;48.112;11.662;2022-07-24T04:07:36;23.00;66.90
31379;DHT22;61664;48.112;11.662;2022-07-24T04:10:05;23.00;67.00
31379;DHT22;61664;48.112;11.662;2022-07-24T04:12:33;23.00;67.10
31379;DHT22;61664;48.112;11.662;2022-07-24T04:15:01;22.90;67.10
31379;DHT22;61664;48.112;11.662;2022-07-24T04:17:28;22.90;67.20
31379;DHT22;61664;48.112;11.662;2022-07-24T04:19:55;22.90;67.30
31379;DHT22;61664;48.112;11.662;2022-07-24T04:22:22;22.90;67.40
31379;DHT22;61664;48.112;11.662;2022-07-24T04:24:50;22.90;68.00
31379;DHT22;61664;48.112;11.662;2022-07-24T04:27:17;22.90;67.60
31379;DHT22;61664;48.112;11.662;2022-07-24T04:29:44;22.90;67.70
31379;DHT22;61664;48.112;11.662;2022-07-24T04:32:11;22.90;67.80
31379;DHT22;61664;48.112;11.662;2022-07-24T04:34:38;22.90;67.80
31379;DHT22;61664;48.112;11.662;2022-07-24T04:37:08;22.90;67.90
31379;DHT22;61664;48.112;11.662;2022-07-24T04:39:35;23.00;68.00
31379;DHT22;61664;48.112;11.662;2022-07-24T04:42:02;23.00;68.00
31379;DHT22;61664;48.112;11.662;2022-07-24T04:44:29;23.00;68.00
31379;DHT22;61664;48.112;11.662;2022-07-24T04:46:56;23.00;68.10
31379;DHT22;61664;48.112;11.662;2022-07-24T04:49:23;23.10;68.10
31379;DHT22;61664;48.112;11.662;2022-07-24T04:51:50;23.10;68.20
31379;DHT22;61664;48.112;11.662;2022-07-24T04:54:17;23.10;68.20
31379;DHT22;61664;48.112;11.662;2022-07-24T04:56:44;23.20;68.30
31379;DHT22;61664;48.112;11.662;2022-07-24T04:59:14;23.20;68.20
31379;DHT22;61664;48.112;11.662;2022-07-24T05:01:41;23.30;67.90
31379;DHT22;61664;48.112;11.662;2022-07-24T05:04:14;23.30;68.10
31379;DHT22;61664;48.112;11.662;2022-07-24T05:06:41;23.40;68.20
31379;DHT22;61664;48.112;11.662;2022-07-24T05:09:08;23.50;68.30
31379;DHT22;61664;48.112;11.662;2022-07-24T05:11:35;23.50;68.30
31379;DHT22;61664;48.112;11.662;2022-07-24T05:14:01;23.60;68.20
31379;DHT22;61664;48.112;11.662;2022-07-24T05:16:28;23.60;68.00
31379;DHT22;61664;48.112;11.662;2022-07-24T05:18:55;23.70;68.00
31379;DHT22;61664;48.112;11.662;2022-07-24T05:21:22;23.80;67.90
31379;DHT22;61664;48.112;11.662;2022-07-24T05:23:51;23.90;67.70
31379;DHT22;61664;48.112;11.662;2022-07-24T05:26:18;23.90;67.70
31379;DHT22;61664;48.112;11.662;2022-07-24T05:28:49;24.00;67.60
31379;DHT22;61664;48.112;11.662;2022-07-24T05:31:16;24.10;67.60
31379;DHT22;61664;48.112;11.662;2022-07-24T05:33:43;24.10;67.50
31379;DHT22;61664;48.112;11.662;2022-07-24T05:36:09;24.20;67.40
31379;DHT22;61664;48.112;11.662;2022-07-24T05:38:36;24.20;67.20
31379;DHT22;61664;48.112;11.662;2022-07-24T05:41:03;24.30;67.20
31379;DHT22;61664;48.112;11.662;2022-07-24T05:43:33;24.30;67.10
31379;DHT22;61664;48.112;11.662;2022-07-24T05:45:59;24.40;66.90
31379;DHT22;61664;48.112;11.662;2022-07-24T05:48:26;24.30;67.00
31379;DHT22;61664;48.112;11.662;2022-07-24T05:50:53;24.40;67.10
31379;DHT22;61664;48.112;11.662;2022-07-24T05:53:21;24.50;67.10
31379;DHT22;61664;48.112;11.662;2022-07-24T05:55:49;24.50;66.80
31379;DHT22;61664;48.112;11.662;2022-07-24T05:58:17;24.50;66.80
31379;DHT22;61664;48.112;11.662;2022-07-24T06:00:44;24.60;66.90
31379;DHT22;61664;48.112;11.662;2022-07-24T06:03:11;24.60;66.90
31379;DHT22;61664;48.112;11.662;2022-07-24T06:05:38;24.70;67.00
31379;DHT22;61664;48.112;11.662;2022-07-24T06:08:05;24.70;67.00
31379;DHT22;61664;48.112;11.662;2022-07-24T06:10:32;24.80;67.10
31379;DHT22;61664;48.112;11.662;2022-07-24T06:12:59;24.90;66.60
31379;DHT22;61664;48.112;11.662;2022-07-24T06:15:27;25.00;66.20
31379;DHT22;61664;48.112;11.662;2022-07-24T06:17:54;25.00;66.00
31379;DHT22;61664;48.112;11.662;2022-07-24T06:20:21;25.10;66.00
31379;DHT22;61664;48.112;11.662;2022-07-24T06:22:49;25.20;65.90
31379;DHT22;61664;48.112;11.662;2022-07-24T06:25:17;25.30;65.70
31379;DHT22;61664;48.112;11.662;2022-07-24T06:27:47;25.40;65.50
31379;DHT22;61664;48.112;11.662;2022-07-24T06:30:21;25.40;65.30
31379;DHT22;61664;48.112;11.662;2022-07-24T06:32:49;25.50;64.60
31379;DHT22;61664;48.112;11.662;2022-07-24T06:35:18;25.60;65.30
31379;DHT22;61664;48.112;11.662;2022-07-24T06:37:45;25.70;64.90
31379;DHT22;61664;48.112;11.662;2022-07-24T06:40:15;25.80;64.60
31379;DHT22;61664;48.112;11.662;2022-07-24T06:42:44;25.90;64.10
31379;DHT22;61664;48.112;11.662;2022-07-24T06:45:13;25.90;63.90
31379;DHT22;61664;48.112;11.662;2022-07-24T06:47:41;26.00;63.70
31379;DHT22;61664;48.112;11.662;2022-07-24T06:50:10;26.10;63.50
31379;DHT22;61664;48.112;11.662;2022-07-24T06:52:38;26.10;63.50
31379;DHT22;61664;48.112;11.662;2022-07-24T06:55:06;26.20;63.60
31379;DHT22;61664;48.112;11.662;2022-07-24T06:57:34;26.30;63.20
31379;DHT22;61664;48.112;11.662;2022-07-24T07:00:02;26.40;62.80
31379;DHT22;61664;48.112;11.662;2022-07-24T07:02:30;26.50;62.70
31379;DHT22;61664;48.112;11.662;2022-07-24T07:04:57;26.60;62.50
31379;DHT22;61664;48.112;11.662;2022-07-24T07:07:24;26.70;62.30
31379;DHT22;61664;48.112;11.662;2022-07-24T07:09:51;26.80;62.30
31379;DHT22;61664;48.112;11.662;2022-07-24T07:12:18;26.80;61.80
31379;DHT22;61664;48.112;11.662;2022-07-24T07:14:45;27.00;61.60
31379;DHT22;61664;48.112;11.662;2022-07-24T07:17:12;27.10;61.20
31379;DHT22;61664;48.112;11.662;2022-07-24T07:19:39;27.20;60.90
31379;DHT22;61664;48.112;11.662;2022-07-24T07:22:06;27.30;60.70
31379;DHT22;61664;48.112;11.662;2022-07-24T07:24:33;27.50;60.70
31379;DHT22;61664;48.112;11.662;2022-07-24T07:27:00;27.60;60.80
31379;DHT22;61664;48.112;11.662;2022-07-24T07:29:27;27.70;60.10
31379;DHT22;61664;48.112;11.662;2022-07-24T07:31:56;27.80;60.00
31379;DHT22;61664;48.112;11.662;2022-07-24T07:34:24;27.90;59.60
31379;DHT22;61664;48.112;11.662;2022-07-24T07:36:50;28.00;59.70
31379;DHT22;61664;48.112;11.662;2022-07-24T07:39:17;28.10;59.30
31379;DHT22;61664;48.112;11.662;2022-07-24T07:41:44;28.20;58.90
31379;DHT22;61664;48.112;11.662;2022-07-24T07:44:11;28.30;58.60
31379;DHT22;61664;48.112;11.662;2022-07-24T07:46:38;28.40;58.30
31379;DHT22;61664;48.112;11.662;2022-07-24T07:49:06;28.60;58.20
31379;DHT22;61664;48.112;11.662;2022-07-24T07:51:34;28.70;57.30
31379;DHT22;61664;48.112;11.662;2022-07-24T07:54:02;28.80;56.90
31379;DHT22;61664;48.112;11.662;2022-07-24T07:56:30;28.80;56.40
31379;DHT22;61664;48.112;11.662;2022-07-24T07:58:57;28.90;56.40
31379;DHT22;61664;48.112;11.662;2022-07-24T08:01:27;29.00;56.00
31379;DHT22;61664;48.112;11.662;2022-07-24T08:03:54;29.10;55.90
31379;DHT22;61664;48.112;11.662;2022-07-24T08:06:21;29.20;55.80
31379;DHT22;61664;48.112;11.662;2022-07-24T08:08:49;29.30;55.60
31379;DHT22;61664;48.112;11.662;2022-07-24T08:11:16;29.40;55.70
31379;DHT22;61664;48.112;11.662;2022-07-24T08:13:44;29.50;55.50
31379;DHT22;61664;48.112;11.662;2022-07-24T08:16:11;29.60;55.00
31379;DHT22;61664;48.112;11.662;2022-07-24T08:18:38;29.70;55.00
31379;DHT22;61664;48.112;11.662;2022-07-24T08:21:06;29.90;54.50
31379;DHT22;61664;48.112;11.662;2022-07-24T08:23:33;30.00;54.00
31379;DHT22;61664;48.112;11.662;2022-07-24T08:26:00;30.20;53.80
31379;DHT22;61664;48.112;11.662;2022-07-24T08:28:27;30.30;54.00
31379;DHT22;61664;48.112;11.662;2022-07-24T08:30:57;30.50;53.60
31379;DHT22;61664;48.112;11.662;2022-07-24T08:33:24;30.60;53.20
31379;DHT22;61664;48.112;11.662;2022-07-24T08:35:51;30.80;53.00
31379;DHT22;61664;48.112;11.662;2022-07-24T08:38:18;30.90;52.40
31379;DHT22;61664;48.112;11.662;2022-07-24T08:40:45;31.10;52.20
31379;DHT22;61664;48.112;11.662;2022-07-24T08:43:13;31.20;52.00
31379;DHT22;61664;48.112;11.662;2022-07-24T08:45:41;31.40;52.20
31379;DHT22;61664;48.112;11.662;2022-07-24T08:48:11;31.60;52.30
31379;DHT22;61664;48.112;11.662;2022-07-24T08:50:40;31.80;53.20
31379;DHT22;61664;48.112;11.662;2022-07-24T08:53:08;32.10;52.40
31379;DHT22;61664;48.112;11.662;2022-07-24T08:55:35;32.50;53.70
31379;DHT22;61664;48.112;11.662;2022-07-24T08:58:03;32.80;54.00
31379;DHT22;61664;48.112;11.662;2022-07-24T09:00:33;33.30;53.10
31379;DHT22;61664;48.112;11.662;2022-07-24T09:03:00;33.70;51.30
31379;DHT22;61664;48.112;11.662;2022-07-24T09:05:27;34.20;51.00
31379;DHT22;61664;48.112;11.662;2022-07-24T09:08:11;34.60;50.00
31379;DHT22;61664;48.112;11.662;2022-07-24T09:10:59;35.10;46.70
31379;DHT22;61664;48.112;11.662;2022-07-24T09:13:31;35.60;45.50
31379;DHT22;61664;48.112;11.662;2022-07-24T09:16:23;36.10;48.20
31379;DHT22;61664;48.112;11.662;2022-07-24T09:19:12;36.60;45.30
31379;DHT22;61664;48.112;11.662;2022-07-24T09:21:42;37.10;44.80
31379;DHT22;61664;48.112;11.662;2022-07-24T09:24:16;37.30;45.30
31379;DHT22;61664;48.112;11.662;2022-07-24T09:26:48;37.20;41.80
31379;DHT22;61664;48.112;11.662;2022-07-24T09:29:18;37.10;43.90
31379;DHT22;61664;48.112;11.662;2022-07-24T09:31:55;37.00;44.10
31379;DHT22;61664;48.112;11.662;2022-07-24T09:34:26;37.10;41.60
31379;DHT22;61664;48.112;11.662;2022-07-24T09:37:05;37.40;42.60
31379;DHT22;61664;48.112;11.662;2022-07-24T09:39:35;37.70;44.40
31379;DHT22;61664;48.112;11.662;2022-07-24T09:42:06;38.00;42.60
31379;DHT22;61664;48.112;11.662;2022-07-24T09:44:33;38.10;41.90
31379;DHT22;61664;48.112;11.662;2022-07-24T09:47:06;38.00;40.90
31379;DHT22;61664;48.112;11.662;2022-07-24T09:49:39;37.70;40.40
31379;DHT22;61664;48.112;11.662;2022-07-24T09:52:11;37.50;41.50
31379;DHT22;61664;48.112;11.662;2022-07-24T09:54:45;37.60;42.10
31379;DHT22;61664;48.112;11.662;2022-07-24T09:59:54;38.20;42.30
31379;DHT22;61664;48.112;11.662;2022-07-24T10:02:26;38.70;41.90
31379;DHT22;61664;48.112;11.662;2022-07-24T10:04:55;39.20;41.70
31379;DHT22;61664;48.112;11.662;2022-07-24T10:07:25;39.60;40.80
31379;DHT22;61664;48.112;11.662;2022-07-24T10:09:58;40.00;40.30
31379;DHT22;61664;48.112;11.662;2022-07-24T10:12:30;40.20;36.60
31379;DHT22;61664;48.112;11.662;2022-07-24T10:14:59;40.50;38.20
31379;DHT22;61664;48.112;11.662;2022-07-24T10:17:39;40.70;38.90
31379;DHT22;61664;48.112;11.662;2022-07-24T10:20:38;40.90;40.20
31379;DHT22;61664;48.112;11.662;2022-07-24T10:23:23;40.80;35.80
31379;DHT22;61664;48.112;11.662;2022-07-24T10:26:04;40.50;33.50
31379;DHT22;61664;48.112;11.662;2022-07-24T10:28:43;40.00;36.00
31379;DHT22;61664;48.112;11.662;2022-07-24T10:31:12;39.50;34.20
31379;DHT22;61664;48.112;11.662;2022-07-24T10:33:46;38.80;35.90
31379;DHT22;61664;48.112;11.662;2022-07-24T10:36:27;38.30;35.70
31379;DHT22;61664;48.112;11.662;2022-07-24T10:39:04;37.90;35.80
31379;DHT22;61664;48.112;11.662;2022-07-24T10:42:01;37.80;36.60
31379;DHT22;61664;48.112;11.662;2022-07-24T10:45:34;38.10;37.70
31379;DHT22;61664;48.112;11.662;2022-07-24T10:47:41;38.60;37.90
31379;DHT22;61664;48.112;11.662;2022-07-24T10:50:09;39.10;40.10
31379;DHT22;61664;48.112;11.662;2022-07-24T10:52:36;39.60;39.20
31379;DHT22;61664;48.112;11.662;2022-07-24T10:55:28;40.20;38.50
31379;DHT22;61664;48.112;11.662;2022-07-24T10:58:04;40.70;36.20
31379;DHT22;61664;48.112;11.662;2022-07-24T11:00:49;41.10;38.00
31379;DHT22;61664;48.112;11.662;2022-07-24T11:03:18;41.60;34.70
31379;DHT22;61664;48.112;11.662;2022-07-24T11:06:08;42.00;37.00
31379;DHT22;61664;48.112;11.662;2022-07-24T11:08:41;42.40;34.80
31379;DHT22;61664;48.112;11.662;2022-07-24T11:11:20;42.60;33.90
31379;DHT22;61664;48.112;11.662;2022-07-24T11:13:53;42.90;33.80
31379;DHT22;61664;48.112;11.662;2022-07-24T11:16:29;43.20;33.60
31379;DHT22;61664;48.112;11.662;2022-07-24T11:21:46;43.60;34.30
31379;DHT22;61664;48.112;11.662;2022-07-24T11:29:36;42.90;29.40
31379;DHT22;61664;48.112;11.662;2022-07-24T11:34:48;42.00;32.00
31379;DHT22;61664;48.112;11.662;2022-07-24T11:37:17;41.50;31.40
31379;DHT22;61664;48.112;11.662;2022-07-24T11:39:45;41.10;32.60
31379;DHT22;61664;48.112;11.662;2022-07-24T11:42:14;40.70;32.70
31379;DHT22;61664;48.112;11.662;2022-07-24T11:44:47;40.20;32.40
31379;DHT22;61664;48.112;11.662;2022-07-24T11:47:19;39.80;31.30
31379;DHT22;61664;48.112;11.662;2022-07-24T11:49:49;39.40;33.00
31379;DHT22;61664;48.112;11.662;2022-07-24T11:54:56;38.60;31.90
31379;DHT22;61664;48.112;11.662;2022-07-24T11:57:44;38.20;33.90
31379;DHT22;61664;48.112;11.662;2022-07-24T12:00:40;38.00;34.30
31379;DHT22;61664;48.112;11.662;2022-07-24T12:03:09;37.90;34.80
31379;DHT22;61664;48.112;11.662;2022-07-24T12:05:38;37.70;34.80
31379;DHT22;61664;48.112;11.662;2022-07-24T12:08:19;37.60;34.60
31379;DHT22;61664;48.112;11.662;2022-07-24T12:10:55;37.40;32.90
31379;DHT22;61664;48.112;11.662;2022-07-24T12:13:22;37.20;33.10
31379;DHT22;61664;48.112;11.662;2022-07-24T12:15:49;36.90;34.20
31379;DHT22;61664;48.112;11.662;2022-07-24T12:18:17;36.60;34.20
31379;DHT22;61664;48.112;11.662;2022-07-24T12:20:57;36.30;34.40
31379;DHT22;61664;48.112;11.662;2022-07-24T12:23:27;36.10;35.00
31379;DHT22;61664;48.112;11.662;2022-07-24T12:25:59;35.90;35.20
31379;DHT22;61664;48.112;11.662;2022-07-24T12:28:27;35.90;35.80
31379;DHT22;61664;48.112;11.662;2022-07-24T12:30:54;36.10;36.70
31379;DHT22;61664;48.112;11.662;2022-07-24T12:33:26;36.30;36.20
31379;DHT22;61664;48.112;11.662;2022-07-24T12:38:28;36.60;35.60
31379;DHT22;61664;48.112;11.662;2022-07-24T12:43:31;36.50;33.70
31379;DHT22;61664;48.112;11.662;2022-07-24T12:46:09;36.30;34.70
31379;DHT22;61664;48.112;11.662;2022-07-24T12:48:37;36.10;33.40
31379;DHT22;61664;48.112;11.662;2022-07-24T12:51:11;35.90;35.20
31379;DHT22;61664;48.112;11.662;2022-07-24T12:53:40;35.80;34.10
31379;DHT22;61664;48.112;11.662;2022-07-24T12:56:16;35.70;35.40
31379;DHT22;61664;48.112;11.662;2022-07-24T12:58:54;35.80;35.20
31379;DHT22;61664;48.112;11.662;2022-07-24T13:01:22;35.80;35.10
31379;DHT22;61664;48.112;11.662;2022-07-24T13:04:10;35.80;35.90
31379;DHT22;61664;48.112;11.662;2022-07-24T13:06:43;35.90;34.80
31379;DHT22;61664;48.112;11.662;2022-07-24T13:09:14;35.90;33.50
31379;DHT22;61664;48.112;11.662;2022-07-24T13:11:43;36.00;35.30
31379;DHT22;61664;48.112;11.662;2022-07-24T13:14:13;35.90;35.40
31379;DHT22;61664;48.112;11.662;2022-07-24T13:16:43;35.90;35.20
31379;DHT22;61664;48.112;11.662;2022-07-24T13:19:12;36.00;35.20
31379;DHT22;61664;48.112;11.662;2022-07-24T13:21:40;36.00;35.60
31379;DHT22;61664;48.112;11.662;2022-07-24T13:24:09;36.10;35.60
31379;DHT22;61664;48.112;11.662;2022-07-24T13:26:38;36.10;35.50
31379;DHT22;61664;48.112;11.662;2022-07-24T13:29:09;36.20;35.50
31379;DHT22;61664;48.112;11.662;2022-07-24T13:31:38;36.40;35.30
31379;DHT22;61664;48.112;11.662;2022-07-24T13:34:07;36.50;35.50
31379;DHT22;61664;48.112;11.662;2022-07-24T13:36:37;36.70;35.30
31379;DHT22;61664;48.112;11.662;2022-07-24T13:39:07;36.80;35.20
31379;DHT22;61664;48.112;11.662;2022-07-24T13:41:34;36.90;34.70
31379;DHT22;61664;48.112;11.662;2022-07-24T13:44:03;37.00;34.80
31379;DHT22;61664;48.112;11.662;2022-07-24T13:46:32;37.00;34.30
31379;DHT22;61664;48.112;11.662;2022-07-24T13:49:03;37.00;34.90
31379;DHT22;61664;48.112;11.662;2022-07-24T13:51:31;37.20;34.90
31379;DHT22;61664;48.112;11.662;2022-07-24T13:53:59;37.30;34.80
31379;DHT22;61664;48.112;11.662;2022-07-24T13:56:27;37.40;34.30
31379;DHT22;61664;48.112;11.662;2022-07-24T13:58:54;37.30;34.00
31379;DHT22;61664;48.112;11.662;2022-07-24T14:01:21;37.20;33.70
31379;DHT22;61664;48.112;11.662;2022-07-24T14:04:00;37.10;33.60
31379;DHT22;61664;48.112;11.662;2022-07-24T14:06:47;37.10;34.10
31379;DHT22;61664;48.112;11.662;2022-07-24T14:09:14;37.20;34.30
31379;DHT22;61664;48.112;11.662;2022-07-24T14:11:41;37.10;33.70
31379;DHT22;61664;48.112;11.662;2022-07-24T14:14:08;37.10;34.10
31379;DHT22;61664;48.112;11.662;2022-07-24T14:16:35;37.10;34.00
31379;DHT22;61664;48.112;11.662;2022-07-24T14:19:04;37.30;34.70
31379;DHT22;61664;48.112;11.662;2022-07-24T14:21:31;37.80;35.30
31379;DHT22;61664;48.112;11.662;2022-07-24T14:24:00;38.30;34.70
31379;DHT22;61664;48.112;11.662;2022-07-24T14:26:28;38.80;35.00
31379;DHT22;61664;48.112;11.662;2022-07-24T14:28:55;39.40;35.50
31379;DHT22;61664;48.112;11.662;2022-07-24T14:31:22;40.20;35.50
31379;DHT22;61664;48.112;11.662;2022-07-24T14:33:49;41.20;35.00
31379;DHT22;61664;48.112;11.662;2022-07-24T14:36:16;42.00;34.50
31379;DHT22;61664;48.112;11.662;2022-07-24T14:38:43;42.90;34.50
31379;DHT22;61664;48.112;11.662;2022-07-24T14:41:10;43.90;34.10
31379;DHT22;61664;48.112;11.662;2022-07-24T14:43:36;44.60;33.50
31379;DHT22;61664;48.112;11.662;2022-07-24T14:46:03;45.40;32.80
31379;DHT22;61664;48.112;11.662;2022-07-24T14:48:30;46.10;32.00
31379;DHT22;61664;48.112;11.662;2022-07-24T14:50:57;46.70;31.40
31379;DHT22;61664;48.112;11.662;2022-07-24T14:53:24;47.20;30.80
31379;DHT22;61664;48.112;11.662;2022-07-24T14:55:52;47.60;30.30
31379;DHT22;61664;48.112;11.662;2022-07-24T14:58:19;48.00;30.00
31379;DHT22;61664;48.112;11.662;2022-07-24T15:00:46;48.30;29.80
31379;DHT22;61664;48.112;11.662;2022-07-24T15:03:15;48.50;29.10
31379;DHT22;61664;48.112;11.662;2022-07-24T15:05:42;48.60;28.70
31379;DHT22;61664;48.112;11.662;2022-07-24T15:08:09;48.50;28.20
31379;DHT22;61664;48.112;11.662;2022-07-24T15:10:37;48.00;27.60
31379;DHT22;61664;48.112;11.662;2022-07-24T15:13:03;47.40;27.40
31379;DHT22;61664;48.112;11.662;2022-07-24T15:15:30;46.70;27.40
31379;DHT22;61664;48.112;11.662;2022-07-24T15:17:58;46.10;27.40
31379;DHT22;61664;48.112;11.662;2022-07-24T15:20:25;45.70;27.60
31379;DHT22;61664;48.112;11.662;2022-07-24T15:22:52;45.20;27.70
31379;DHT22;61664;48.112;11.662;2022-07-24T15:25:19;44.80;27.80
31379;DHT22;61664;48.112;11.662;2022-07-24T15:27:46;44.50;28.00
31379;DHT22;61664;48.112;11.662;2022-07-24T15:30:16;44.30;28.10
31379;DHT22;61664;48.112;11.662;2022-07-24T15:32:53;43.90;27.70
31379;DHT22;61664;48.112;11.662;2022-07-24T15:35:20;43.30;27.60
31379;DHT22;61664;48.112;11.662;2022-07-24T15:37:47;42.70;27.50
31379;DHT22;61664;48.112;11.662;2022-07-24T15:40:14;42.00;27.50
31379;DHT22;61664;48.112;11.662;2022-07-24T15:42:41;41.20;27.50
31379;DHT22;61664;48.112;11.662;2022-07-24T15:45:12;40.70;27.90
31379;DHT22;61664;48.112;11.662;2022-07-24T15:48:05;40.20;28.50
31379;DHT22;61664;48.112;11.662;2022-07-24T15:50:32;40.10;29.50